Time;durP1;ratioP1;P1;durP2;ratioP2;P2;SDS_P1;SDS_P2;PMS_P1;PMS_P2;Temp;Humidity;BMP_temperature;BMP_pressure;BME280_temperature;BME280_humidity;BME280_pressure;Samples;Min_cycle;Max_cycle;Signal;HPM_P1;HPM_P2
2022/08/03 00:00:01;;;;;;;0.20;0.20;;;20.60;99.90;;;;;;5087810;28;20083;-80
2022/08/03 00:02:27;;;;;;;0.20;0.20;;;20.50;99.90;;;;;;5087846;28;20058;-80
2022/08/03 00:04:52;;;;;;;0.20;0.20;;;20.50;99.90;;;;;;5078914;28;20033;-80
2022/08/03 00:07:18;;;;;;;0.20;0.20;;;20.50;99.90;;;;;;5061633;28;20704;-79
2022/08/03 00:09:44;;;;;;;0.20;0.20;;;20.50;99.90;;;;;;5071095;28;20477;-79
2022/08/03 00:12:09;;;;;;;0.20;0.20;;;20.40;99.90;;;;;;5076723;28;20040;-80
2022/08/03 00:14:35;;;;;;;0.20;0.20;;;20.50;99.90;;;;;;5072058;28;20041;-81
2022/08/03 00:17:02;;;;;;;0.20;0.20;;;20.40;99.90;;;;;;5071841;28;20055;-81
2022/08/03 00:19:27;;;;;;;0.20;0.20;;;20.40;99.90;;;;;;5069038;28;20129;-80
2022/08/03 00:21:53;;;;;;;0.20;0.20;;;20.40;99.90;;;;;;5067059;28;20141;-80
2022/08/03 00:24:19;;;;;;;0.20;0.20;;;20.30;99.90;;;;;;5076695;28;20047;-80
2022/08/03 00:26:45;;;;;;;0.25;0.25;;;20.30;99.90;;;;;;5074359;28;20036;-79
2022/08/03 00:29:10;;;;;;;0.20;0.20;;;20.30;99.90;;;;;;5068898;28;20072;-79
2022/08/03 00:31:39;;;;;;;0.20;0.20;;;20.30;99.90;;;;;;5063434;28;20048;-80
2022/08/03 00:34:05;;;;;;;0.20;0.20;;;20.20;99.90;;;;;;5062387;28;20040;-80
2022/08/03 00:36:30;;;;;;;0.15;0.15;;;20.30;99.90;;;;;;5069173;28;20048;-81
2022/08/03 00:38:56;;;;;;;0.20;0.20;;;20.30;99.90;;;;;;5070692;28;20040;-80
2022/08/03 00:41:22;;;;;;;0.20;0.20;;;20.20;99.90;;;;;;5069812;28;20489;-81
2022/08/03 00:43:47;;;;;;;0.20;0.20;;;20.20;99.90;;;;;;5067284;28;20041;-80
2022/08/03 00:46:13;;;;;;;0.20;0.20;;;20.20;99.90;;;;;;5054749;28;20413;-80
2022/08/03 00:48:39;;;;;;;0.10;0.10;;;20.20;99.90;;;;;;5068977;28;20474;-81
2022/08/03 00:51:05;;;;;;;0.22;0.22;;;20.10;99.90;;;;;;5061804;28;20052;-81
2022/08/03 00:53:33;;;;;;;0.20;0.20;;;20.10;99.90;;;;;;5077944;28;20161;-81
2022/08/03 00:55:59;;;;;;;0.20;0.20;;;20.10;99.90;;;;;;5060136;28;20045;-80
2022/08/03 00:58:24;;;;;;;0.20;0.20;;;20.10;99.90;;;;;;5070031;28;20032;-81
2022/08/03 01:00:51;;;;;;;0.20;0.20;;;20.00;99.90;;;;;;5076053;28;20404;-80
2022/08/03 01:03:17;;;;;;;0.20;0.20;;;20.00;99.90;;;;;;5094928;28;20037;-81
2022/08/03 01:05:54;;;;;;;0.20;0.20;;;20.00;99.90;;;;;;5072909;28;20067;-81
2022/08/03 01:08:38;;;;;;;0.20;0.20;;;20.00;99.90;;;;;;5051841;28;20036;-80
2022/08/03 01:11:25;;;;;;;0.20;0.20;;;20.00;99.90;;;;;;5053742;28;20040;-81
2022/08/03 01:13:58;;;;;;;0.20;0.20;;;20.00;99.90;;;;;;5071604;28;20040;-80
2022/08/03 01:16:30;;;;;;;0.20;0.20;;;20.00;99.90;;;;;;5065792;28;20460;-80
2022/08/03 01:19:12;;;;;;;0.20;0.20;;;19.90;99.90;;;;;;5057523;28;20162;-80
2022/08/03 01:22:08;;;;;;;0.20;0.20;;;19.90;99.90;;;;;;5070883;28;20486;-80
2022/08/03 01:24:40;;;;;;;0.20;0.20;;;19.80;99.90;;;;;;5061753;28;20128;-80
2022/08/03 01:27:19;;;;;;;0.20;0.20;;;19.80;99.90;;;;;;5068279;28;20041;-80
2022/08/03 01:29:51;;;;;;;0.10;0.10;;;19.80;99.90;;;;;;5080451;28;20043;-81
2022/08/03 01:32:21;;;;;;;0.20;0.20;;;19.80;99.90;;;;;;5067022;28;20044;-81
2022/08/03 01:35:01;;;;;;;0.30;0.30;;;19.80;99.90;;;;;;5067920;28;20040;-81
2022/08/03 01:37:37;;;;;;;0.20;0.20;;;19.80;99.90;;;;;;5061532;28;20048;-80
2022/08/03 01:40:05;;;;;;;0.10;0.10;;;19.80;99.90;;;;;;5074980;28;20422;-80
2022/08/03 01:42:32;;;;;;;0.20;0.20;;;19.80;99.90;;;;;;5068272;28;20055;-81
2022/08/03 01:44:59;;;;;;;0.20;0.20;;;19.80;99.90;;;;;;5064272;28;20455;-80
2022/08/03 01:47:28;;;;;;;0.20;0.20;;;19.70;99.90;;;;;;5087055;28;20045;-81
2022/08/03 01:49:56;;;;;;;0.10;0.10;;;19.80;99.90;;;;;;5083920;28;20115;-81
2022/08/03 01:52:23;;;;;;;0.20;0.20;;;19.70;99.90;;;;;;5076154;28;20049;-80
2022/08/03 01:54:52;;;;;;;0.20;0.20;;;19.80;99.90;;;;;;5071484;28;20082;-80
2022/08/03 01:57:18;;;;;;;0.20;0.20;;;19.70;99.90;;;;;;5061191;28;20041;-80
2022/08/03 01:59:47;;;;;;;0.20;0.20;;;19.70;99.90;;;;;;5057746;28;20142;-80
2022/08/03 02:02:15;;;;;;;0.20;0.20;;;19.70;99.90;;;;;;5060232;28;20053;-80
2022/08/03 02:04:43;;;;;;;0.20;0.20;;;19.70;99.90;;;;;;5062775;28;20496;-80
2022/08/03 02:07:10;;;;;;;0.20;0.20;;;19.70;99.90;;;;;;5070267;28;20057;-81
2022/08/03 02:09:44;;;;;;;0.20;0.20;;;19.70;99.90;;;;;;5078184;28;20064;-80
2022/08/03 02:12:11;;;;;;;0.20;0.20;;;19.70;99.90;;;;;;5070670;28;20064;-79
2022/08/03 02:14:39;;;;;;;0.20;0.20;;;19.70;99.90;;;;;;5069645;28;20048;-79
2022/08/03 02:17:09;;;;;;;0.17;0.17;;;19.70;99.90;;;;;;5076600;28;20048;-81
2022/08/03 02:19:36;;;;;;;0.20;0.20;;;19.70;99.90;;;;;;5081400;28;20044;-80
2022/08/03 02:22:07;;;;;;;0.20;0.20;;;19.70;99.90;;;;;;5061341;28;20040;-80
2022/08/03 02:24:32;;;;;;;0.20;0.20;;;19.70;99.90;;;;;;5064808;28;20114;-80
2022/08/03 02:26:59;;;;;;;0.20;0.20;;;19.70;99.90;;;;;;5064466;28;20764;-81
2022/08/03 02:29:29;;;;;;;0.20;0.20;;;19.60;99.90;;;;;;5076002;28;20093;-81
2022/08/03 02:31:58;;;;;;;0.20;0.20;;;19.60;99.90;;;;;;5053804;28;20044;-80
2022/08/03 02:34:30;;;;;;;0.20;0.20;;;19.60;99.90;;;;;;5075818;28;20044;-80
2022/08/03 02:37:07;;;;;;;0.20;0.20;;;19.60;99.90;;;;;;5099049;28;20061;-79
2022/08/03 02:39:34;;;;;;;0.20;0.20;;;19.60;99.90;;;;;;5062547;28;20033;-79
2022/08/03 02:42:04;;;;;;;0.20;0.20;;;19.60;99.90;;;;;;5078710;28;20040;-80
2022/08/03 02:44:31;;;;;;;0.10;0.10;;;19.60;99.90;;;;;;5086815;28;20044;-80
2022/08/03 02:47:04;;;;;;;0.20;0.20;;;19.60;99.90;;;;;;5088822;28;20475;-80
2022/08/03 02:49:31;;;;;;;0.20;0.20;;;19.50;99.90;;;;;;5087099;28;20091;-80
2022/08/03 02:51:58;;;;;;;0.28;0.28;;;19.60;99.90;;;;;;5085480;28;20052;-79
2022/08/03 02:54:26;;;;;;;0.20;0.20;;;19.50;99.90;;;;;;5067120;28;20044;-80
2022/08/03 02:56:55;;;;;;;0.20;0.20;;;19.50;99.90;;;;;;5081772;28;20056;-81
2022/08/03 02:59:26;;;;;;;0.20;0.20;;;19.50;99.90;;;;;;5092495;28;20048;-79
2022/08/03 03:01:53;;;;;;;0.20;0.20;;;19.50;99.90;;;;;;5065600;28;20540;-81
2022/08/03 03:04:20;;;;;;;0.20;0.20;;;19.40;99.90;;;;;;5079769;28;20040;-80
2022/08/03 03:06:47;;;;;;;0.20;0.20;;;19.40;99.90;;;;;;5091149;28;20063;-81
2022/08/03 03:09:13;;;;;;;0.20;0.20;;;19.40;99.90;;;;;;5079064;28;20048;-80
2022/08/03 03:11:40;;;;;;;0.20;0.20;;;19.30;99.90;;;;;;5066960;28;20051;-81
2022/08/03 03:14:08;;;;;;;0.10;0.10;;;19.30;99.90;;;;;;5081070;28;20157;-80
2022/08/03 03:16:34;;;;;;;0.20;0.20;;;19.40;99.90;;;;;;5091405;28;20044;-81
2022/08/03 03:19:01;;;;;;;0.10;0.10;;;19.30;99.90;;;;;;5089322;28;20040;-81
2022/08/03 03:21:27;;;;;;;0.10;0.10;;;19.30;99.90;;;;;;5062048;28;20059;-81
2022/08/03 03:23:54;;;;;;;0.20;0.20;;;19.30;99.90;;;;;;5059984;28;21897;-80
2022/08/03 03:26:19;;;;;;;0.20;0.20;;;19.30;99.90;;;;;;5078247;28;20040;-80
2022/08/03 03:28:46;;;;;;;0.20;0.20;;;19.30;99.90;;;;;;5079684;28;20050;-81
2022/08/03 03:31:11;;;;;;;0.20;0.20;;;19.30;99.90;;;;;;5082802;28;20039;-80
2022/08/03 03:33:37;;;;;;;0.20;0.20;;;19.30;99.90;;;;;;5081068;28;20041;-80
2022/08/03 03:36:06;;;;;;;0.20;0.20;;;19.30;99.90;;;;;;5075542;28;20127;-80
2022/08/03 03:38:32;;;;;;;0.20;0.20;;;19.20;99.90;;;;;;5066673;28;20166;-81
2022/08/03 03:40:59;;;;;;;0.20;0.20;;;19.20;99.90;;;;;;5065304;28;20036;-81
2022/08/03 03:43:24;;;;;;;0.20;0.20;;;19.20;99.90;;;;;;5076439;28;20146;-81
2022/08/03 03:45:52;;;;;;;0.20;0.20;;;19.20;99.90;;;;;;5082949;28;20135;-81
2022/08/03 03:48:19;;;;;;;0.20;0.20;;;19.20;99.90;;;;;;5071023;28;20059;-80
2022/08/03 03:50:47;;;;;;;0.20;0.20;;;19.10;99.90;;;;;;5078783;28;20090;-80
2022/08/03 03:53:14;;;;;;;0.20;0.20;;;19.10;99.90;;;;;;5077817;28;20040;-80
2022/08/03 03:55:40;;;;;;;0.20;0.20;;;19.10;99.90;;;;;;5076920;28;20052;-81
2022/08/03 03:58:07;;;;;;;0.20;0.20;;;19.10;99.90;;;;;;5089798;28;20089;-80
2022/08/03 04:00:33;;;;;;;0.20;0.20;;;19.10;99.90;;;;;;5079285;28;20111;-80
2022/08/03 04:02:58;;;;;;;0.20;0.20;;;19.00;99.90;;;;;;5075905;28;20463;-80
2022/08/03 04:11:12;;;;;;;0.20;0.20;;;19.00;99.90;;;;;;5062921;28;20144;-80
2022/08/03 04:13:42;;;;;;;0.20;0.20;;;19.00;99.90;;;;;;5097717;28;20036;-80
2022/08/03 04:16:11;;;;;;;0.20;0.20;;;19.10;99.90;;;;;;5073613;28;20040;-80
2022/08/03 04:18:39;;;;;;;0.20;0.20;;;19.00;99.90;;;;;;5063018;28;20040;-80
2022/08/03 04:21:09;;;;;;;0.20;0.20;;;19.10;99.90;;;;;;5070418;28;20499;-80
2022/08/03 04:23:37;;;;;;;0.20;0.20;;;19.00;99.90;;;;;;5066851;28;20033;-80
2022/08/03 04:26:08;;;;;;;0.20;0.20;;;19.10;99.90;;;;;;5068013;28;20879;-80
2022/08/03 04:28:36;;;;;;;0.20;0.20;;;19.00;99.90;;;;;;5069728;28;20048;-80
2022/08/03 04:31:03;;;;;;;0.10;0.10;;;19.10;99.90;;;;;;5076973;28;20040;-80
2022/08/03 04:33:32;;;;;;;0.20;0.20;;;19.10;99.90;;;;;;5083948;28;20583;-79
2022/08/03 04:35:59;;;;;;;0.20;0.20;;;19.10;99.90;;;;;;5080151;28;20395;-80
2022/08/03 04:38:28;;;;;;;0.20;0.20;;;19.10;99.90;;;;;;5059564;28;20606;-80
2022/08/03 04:40:55;;;;;;;0.20;0.20;;;19.10;99.90;;;;;;5068703;28;20094;-79
2022/08/03 04:43:21;;;;;;;0.17;0.17;;;19.10;99.90;;;;;;5068770;28;20048;-79
2022/08/03 04:45:49;;;;;;;0.20;0.20;;;19.20;99.90;;;;;;5073923;28;20052;-80
2022/08/03 04:48:16;;;;;;;0.20;0.20;;;19.10;99.90;;;;;;5089340;28;20141;-79
2022/08/03 04:50:42;;;;;;;0.20;0.20;;;19.20;99.90;;;;;;5068473;28;20049;-80
2022/08/03 04:53:08;;;;;;;0.20;0.20;;;19.20;99.90;;;;;;5066128;28;20040;-78
2022/08/03 04:55:34;;;;;;;0.20;0.20;;;19.20;99.90;;;;;;5066758;28;20071;-79
2022/08/03 04:58:02;;;;;;;0.20;0.20;;;19.10;99.90;;;;;;5072959;28;20048;-80
2022/08/03 05:00:28;;;;;;;0.20;0.20;;;19.20;99.90;;;;;;5064331;28;20066;-79
2022/08/03 05:02:54;;;;;;;0.20;0.20;;;19.20;99.90;;;;;;5066236;28;20622;-80
2022/08/03 05:05:20;;;;;;;0.10;0.10;;;19.20;99.90;;;;;;5068242;28;20563;-79
2022/08/03 05:07:46;;;;;;;0.20;0.20;;;19.20;99.90;;;;;;5073711;28;20139;-81
2022/08/03 05:10:13;;;;;;;0.20;0.20;;;19.30;99.90;;;;;;5073522;28;20135;-81
2022/08/03 05:12:39;;;;;;;0.20;0.20;;;19.30;99.90;;;;;;5079672;28;20672;-80
2022/08/03 05:15:05;;;;;;;0.20;0.20;;;19.30;99.90;;;;;;5059938;28;20037;-80
2022/08/03 05:17:32;;;;;;;0.20;0.20;;;19.30;99.90;;;;;;5063595;28;20044;-80
2022/08/03 05:19:59;;;;;;;0.20;0.20;;;19.30;99.90;;;;;;5066196;28;20510;-79
2022/08/03 05:22:24;;;;;;;0.10;0.10;;;19.40;99.90;;;;;;5078602;28;20127;-80
2022/08/03 05:24:50;;;;;;;0.20;0.20;;;19.30;99.90;;;;;;5068399;28;20112;-81
2022/08/03 05:27:18;;;;;;;0.10;0.10;;;19.40;99.90;;;;;;5065788;28;20048;-81
2022/08/03 05:29:47;;;;;;;0.20;0.20;;;19.40;99.90;;;;;;5065141;28;20542;-80
2022/08/03 05:32:13;;;;;;;0.20;0.20;;;19.50;99.90;;;;;;5077981;28;20082;-80
2022/08/03 05:34:41;;;;;;;0.10;0.10;;;19.40;99.90;;;;;;5068324;28;20086;-80
2022/08/03 05:37:07;;;;;;;0.20;0.20;;;19.50;99.90;;;;;;5068293;28;20051;-80
2022/08/03 05:39:33;;;;;;;0.20;0.20;;;19.50;99.90;;;;;;5080042;28;20047;-81
2022/08/03 05:42:00;;;;;;;0.20;0.20;;;19.50;99.90;;;;;;5072217;28;20115;-79
2022/08/03 05:44:26;;;;;;;0.20;0.20;;;19.60;99.90;;;;;;5070219;28;20044;-78
2022/08/03 05:46:51;;;;;;;0.20;0.20;;;19.40;99.90;;;;;;5089805;28;20135;-78
2022/08/03 05:49:18;;;;;;;0.17;0.17;;;19.60;99.90;;;;;;5084822;28;20631;-79
2022/08/03 05:51:44;;;;;;;0.10;0.10;;;19.50;99.90;;;;;;5077959;28;20057;-80
2022/08/03 05:54:10;;;;;;;0.25;0.25;;;19.60;99.90;;;;;;5070251;28;20037;-79
2022/08/03 05:56:35;;;;;;;0.20;0.20;;;19.70;99.90;;;;;;5070501;28;20028;-80
2022/08/03 05:59:01;;;;;;;0.17;0.17;;;19.70;99.90;;;;;;5082247;28;20052;-79
2022/08/03 06:01:27;;;;;;;0.20;0.20;;;19.70;99.90;;;;;;5065138;28;20416;-80
2022/08/03 06:03:52;;;;;;;0.20;0.20;;;19.80;99.90;;;;;;5076282;28;20459;-80
2022/08/03 06:06:18;;;;;;;0.20;0.20;;;19.80;99.90;;;;;;5069565;28;20044;-79
2022/08/03 06:08:45;;;;;;;0.20;0.20;;;19.90;99.90;;;;;;5066273;28;20040;-79
2022/08/03 06:11:11;;;;;;;0.20;0.20;;;19.90;99.90;;;;;;5063915;28;20040;-80
2022/08/03 06:13:37;;;;;;;0.20;0.20;;;20.10;99.90;;;;;;5075334;28;20125;-80
2022/08/03 06:16:03;;;;;;;0.10;0.10;;;20.00;99.90;;;;;;5068545;28;20048;-79
2022/08/03 06:18:29;;;;;;;0.17;0.17;;;20.10;99.90;;;;;;5081679;28;20036;-79
2022/08/03 06:20:55;;;;;;;0.10;0.10;;;20.10;99.90;;;;;;5064936;28;20059;-81
2022/08/03 06:23:21;;;;;;;0.20;0.20;;;20.10;99.90;;;;;;5076111;28;20035;-80
2022/08/03 06:25:46;;;;;;;0.28;0.28;;;20.10;99.90;;;;;;5062533;28;20045;-80
2022/08/03 06:28:13;;;;;;;0.20;0.20;;;20.10;99.90;;;;;;5067992;28;20381;-79
2022/08/03 06:30:39;;;;;;;0.20;0.20;;;20.20;99.90;;;;;;5069033;28;20048;-80
2022/08/03 06:33:05;;;;;;;0.20;0.20;;;20.30;99.90;;;;;;5088280;28;20036;-81
2022/08/03 06:35:31;;;;;;;0.10;0.10;;;20.30;99.90;;;;;;5073162;28;20040;-81
2022/08/03 06:37:57;;;;;;;0.20;0.20;;;20.30;99.90;;;;;;5073240;28;20052;-80
2022/08/03 06:40:28;;;;;;;0.20;0.20;;;20.40;99.90;;;;;;5062078;28;21011;-80
2022/08/03 06:42:54;;;;;;;;;;;20.40;99.90;;;;;;5067977;28;20050;-80
2022/08/03 06:45:20;;;;;;;0.20;0.20;;;20.40;99.90;;;;;;5071268;28;19928;-81
2022/08/03 06:47:46;;;;;;;0.15;0.15;;;20.50;99.90;;;;;;5072096;28;20165;-79
2022/08/03 06:50:11;;;;;;;0.20;0.20;;;20.50;99.90;;;;;;5062983;28;20124;-79
2022/08/03 06:52:37;;;;;;;0.20;0.20;;;20.60;99.90;;;;;;5052805;28;20128;-78
2022/08/03 06:55:04;;;;;;;0.20;0.20;;;20.60;99.90;;;;;;5060389;28;20523;-79
2022/08/03 06:57:29;;;;;;;0.20;0.20;;;20.70;99.90;;;;;;5064256;28;20045;-79
2022/08/03 07:00:00;;;;;;;0.20;0.20;;;20.70;99.90;;;;;;5065131;28;20112;-79
2022/08/03 07:02:27;;;;;;;0.20;0.20;;;20.80;99.90;;;;;;5073578;28;20040;-78
2022/08/03 07:04:52;;;;;;;0.20;0.20;;;20.80;99.90;;;;;;5069042;28;20281;-79
2022/08/03 07:07:19;;;;;;;0.20;0.20;;;20.90;99.90;;;;;;5076918;28;20750;-78
2022/08/03 07:09:46;;;;;;;0.20;0.20;;;20.90;99.90;;;;;;5075713;28;20123;-79
2022/08/03 07:12:12;;;;;;;0.20;0.20;;;21.00;99.90;;;;;;5072950;28;20102;-78
2022/08/03 07:14:38;;;;;;;0.10;0.10;;;21.00;99.90;;;;;;5056409;28;20045;-79
2022/08/03 07:17:03;;;;;;;0.20;0.20;;;21.10;99.90;;;;;;5056129;28;20114;-78
2022/08/03 07:19:29;;;;;;;0.20;0.20;;;21.20;99.90;;;;;;5059408;28;20051;-80
2022/08/03 07:21:55;;;;;;;0.20;0.20;;;21.20;99.90;;;;;;5068098;28;20535;-80
2022/08/03 07:24:20;;;;;;;0.20;0.20;;;21.30;99.90;;;;;;5094005;28;20092;-80
2022/08/03 07:26:46;;;;;;;0.20;0.20;;;21.40;99.90;;;;;;5070047;28;20040;-80
2022/08/03 07:29:12;;;;;;;0.20;0.20;;;21.40;99.90;;;;;;5066116;28;20040;-79
2022/08/03 07:31:37;;;;;;;0.20;0.20;;;21.40;99.90;;;;;;5072594;28;20438;-79
2022/08/03 07:34:04;;;;;;;0.17;0.17;;;21.50;99.90;;;;;;5071321;28;20044;-78
2022/08/03 07:36:30;;;;;;;0.20;0.20;;;21.50;99.90;;;;;;5071867;28;20041;-78
2022/08/03 07:38:59;;;;;;;0.20;0.20;;;21.60;99.90;;;;;;5080173;28;20040;-78
2022/08/03 07:41:24;;;;;;;0.20;0.20;;;21.60;99.90;;;;;;5067676;28;20040;-79
2022/08/03 07:43:50;;;;;;;0.20;0.20;;;21.70;99.90;;;;;;5080812;28;20108;-79
2022/08/03 07:46:16;;;;;;;0.20;0.20;;;21.80;99.90;;;;;;5091222;28;20097;-80
2022/08/03 07:48:41;;;;;;;0.20;0.20;;;21.80;99.90;;;;;;5068407;28;20029;-79
2022/08/03 07:51:07;;;;;;;0.20;0.20;;;21.80;99.90;;;;;;5052186;28;20091;-80
2022/08/03 07:53:32;;;;;;;0.15;0.15;;;21.90;99.90;;;;;;5051884;28;20045;-79
2022/08/03 07:55:58;;;;;;;0.20;0.20;;;21.90;99.90;;;;;;5071695;28;20056;-79
2022/08/03 07:58:24;;;;;;;0.20;0.20;;;22.00;99.90;;;;;;5058917;28;20032;-79
2022/08/03 08:00:51;;;;;;;0.10;0.10;;;22.00;99.90;;;;;;5069240;28;20045;-78
2022/08/03 08:03:17;;;;;;;0.20;0.20;;;22.00;99.90;;;;;;5055945;28;20161;-77
2022/08/03 08:05:43;;;;;;;0.20;0.20;;;22.10;99.90;;;;;;5069222;28;20500;-79
2022/08/03 08:08:12;;;;;;;0.20;0.20;;;22.10;99.90;;;;;;5068476;28;20140;-78
2022/08/03 08:10:37;;;;;;;0.20;0.20;;;22.20;99.90;;;;;;5053559;28;20057;-79
2022/08/03 08:13:04;;;;;;;0.20;0.20;;;22.20;99.90;;;;;;5065889;28;20254;-79
2022/08/03 08:15:30;;;;;;;0.20;0.20;;;22.30;99.90;;;;;;5068249;28;20051;-79
2022/08/03 08:18:01;;;;;;;0.20;0.20;;;22.30;99.90;;;;;;5066634;28;20121;-79
2022/08/03 08:20:29;;;;;;;0.20;0.20;;;22.30;99.90;;;;;;5064969;28;20043;-78
2022/08/03 08:22:56;;;;;;;0.20;0.20;;;22.40;99.90;;;;;;5059733;28;20485;-80
2022/08/03 08:25:22;;;;;;;0.20;0.20;;;22.40;99.90;;;;;;5059139;28;20483;-79
2022/08/03 08:27:49;;;;;;;0.20;0.20;;;22.50;99.90;;;;;;5052529;28;20131;-80
2022/08/03 08:30:18;;;;;;;0.20;0.20;;;22.50;99.90;;;;;;5053188;28;20122;-79
2022/08/03 08:32:44;;;;;;;0.20;0.20;;;22.60;99.90;;;;;;5073985;28;20396;-78
2022/08/03 08:35:10;;;;;;;0.20;0.20;;;22.70;99.90;;;;;;5065381;28;20044;-79
2022/08/03 08:37:36;;;;;;;0.20;0.20;;;22.70;99.90;;;;;;5080965;28;20056;-79
2022/08/03 08:40:03;;;;;;;0.20;0.20;;;22.80;99.90;;;;;;5086053;28;20046;-79
2022/08/03 08:42:31;;;;;;;0.20;0.20;;;22.90;99.90;;;;;;5068318;28;20103;-79
2022/08/03 08:44:57;;;;;;;0.20;0.20;;;22.90;99.90;;;;;;5063956;28;20037;-79
2022/08/03 08:47:25;;;;;;;0.20;0.20;;;23.00;99.90;;;;;;5069911;28;20098;-79
2022/08/03 08:49:54;;;;;;;0.20;0.20;;;23.10;99.90;;;;;;5066498;28;20080;-79
2022/08/03 08:52:27;;;;;;;0.20;0.20;;;23.10;99.90;;;;;;5064817;28;20037;-78
2022/08/03 08:55:03;;;;;;;0.20;0.20;;;23.20;99.90;;;;;;5058813;28;20049;-79
2022/08/03 08:57:34;;;;;;;0.20;0.20;;;23.20;99.90;;;;;;5062658;28;20041;-78
2022/08/03 09:00:00;;;;;;;0.20;0.20;;;23.30;99.90;;;;;;5076727;28;20083;-78
2022/08/03 09:02:29;;;;;;;0.20;0.20;;;23.30;99.90;;;;;;5075154;28;20427;-79
2022/08/03 09:04:55;;;;;;;0.20;0.20;;;23.40;99.90;;;;;;5073171;28;20076;-80
2022/08/03 09:07:21;;;;;;;0.20;0.20;;;23.40;99.90;;;;;;5052865;28;20124;-79
2022/08/03 09:09:48;;;;;;;0.20;0.20;;;23.40;99.90;;;;;;5061848;28;20139;-78
2022/08/03 09:12:14;;;;;;;0.20;0.20;;;23.40;99.90;;;;;;5066779;28;20072;-78
2022/08/03 09:14:42;;;;;;;0.20;0.20;;;23.50;99.90;;;;;;5068653;28;20048;-79
2022/08/03 09:17:08;;;;;;;0.20;0.20;;;23.60;99.90;;;;;;5064635;28;20051;-78
2022/08/03 09:19:35;;;;;;;0.20;0.20;;;23.70;99.90;;;;;;5068095;28;20047;-78
2022/08/03 09:22:13;;;;;;;0.20;0.20;;;23.70;99.90;;;;;;5067755;28;20494;-77
2022/08/03 09:25:06;;;;;;;0.20;0.20;;;23.80;99.90;;;;;;5051544;28;20040;-79
2022/08/03 09:27:45;;;;;;;0.20;0.20;;;23.80;99.90;;;;;;5072557;28;20049;-79
2022/08/03 09:30:15;;;;;;;0.20;0.20;;;23.80;99.90;;;;;;5058108;28;20045;-78
2022/08/03 09:32:43;;;;;;;0.20;0.20;;;23.90;99.90;;;;;;5062046;28;20044;-79
2022/08/03 09:35:10;;;;;;;0.13;0.13;;;24.00;99.90;;;;;;5069615;28;20037;-80
2022/08/03 09:37:36;;;;;;;0.20;0.20;;;24.00;99.90;;;;;;5070933;28;20488;-78
2022/08/03 09:40:02;;;;;;;0.20;0.20;;;24.10;99.90;;;;;;5068246;28;20090;-78
2022/08/03 09:42:28;;;;;;;0.20;0.20;;;24.10;99.90;;;;;;5068695;28;20087;-78
2022/08/03 09:44:53;;;;;;;0.20;0.20;;;24.20;99.90;;;;;;5070025;28;20072;-77
2022/08/03 09:47:29;;;;;;;0.20;0.20;;;24.20;99.90;;;;;;5070805;28;20036;-77
2022/08/03 09:49:57;;;;;;;0.20;0.20;;;24.30;99.90;;;;;;5065062;28;20373;-77
2022/08/03 09:52:29;;;;;;;0.20;0.20;;;24.30;99.90;;;;;;5062720;28;20047;-81
2022/08/03 09:54:55;;;;;;;0.20;0.20;;;24.30;99.90;;;;;;5073200;28;20040;-79
2022/08/03 09:57:23;;;;;;;0.20;0.20;;;24.30;99.90;;;;;;5070478;28;20055;-79
2022/08/03 09:59:50;;;;;;;0.20;0.20;;;24.30;99.90;;;;;;5056001;28;20045;-78
2022/08/03 10:02:24;;;;;;;0.20;0.20;;;24.40;99.90;;;;;;5067995;28;20048;-78
2022/08/03 10:04:51;;;;;;;0.20;0.20;;;24.50;99.90;;;;;;5068488;28;20040;-78
2022/08/03 10:07:19;;;;;;;0.30;0.30;;;24.50;99.90;;;;;;5082589;28;20723;-79
2022/08/03 10:09:58;;;;;;;0.20;0.20;;;24.60;99.90;;;;;;5062903;28;20091;-78
2022/08/03 10:12:24;;;;;;;0.20;0.20;;;24.60;99.90;;;;;;5064106;28;20044;-80
2022/08/03 10:14:51;;;;;;;0.20;0.20;;;24.70;99.90;;;;;;5069574;28;20056;-79
2022/08/03 10:17:17;;;;;;;0.20;0.20;;;24.70;99.90;;;;;;5068281;28;20127;-79
2022/08/03 10:19:43;;;;;;;0.20;0.20;;;24.70;99.90;;;;;;5070218;28;20094;-80
2022/08/03 10:22:16;;;;;;;0.20;0.20;;;24.70;99.90;;;;;;5067900;28;20033;-80
2022/08/03 10:24:52;;;;;;;0.20;0.20;;;24.80;99.90;;;;;;5066593;28;20504;-79
2022/08/03 10:27:19;;;;;;;0.20;0.20;;;24.80;99.90;;;;;;5067084;28;20377;-79
2022/08/03 10:29:50;;;;;;;0.20;0.20;;;24.90;99.90;;;;;;5061140;28;20059;-79
2022/08/03 10:32:32;;;;;;;0.20;0.20;;;25.00;99.90;;;;;;5070774;28;20041;-79
2022/08/03 10:35:11;;;;;;;0.20;0.20;;;25.10;99.90;;;;;;5076097;28;20457;-79
2022/08/03 10:37:43;;;;;;;0.20;0.20;;;25.20;99.90;;;;;;5069184;28;20070;-79
2022/08/03 10:40:19;;;;;;;0.20;0.20;;;25.30;99.90;;;;;;5052379;28;20068;-79
2022/08/03 10:42:48;;;;;;;0.25;0.25;;;25.40;99.90;;;;;;5069880;28;20532;-79
2022/08/03 10:45:24;;;;;;;0.20;0.20;;;25.50;99.90;;;;;;5068765;28;20087;-80
2022/08/03 10:47:51;;;;;;;0.20;0.20;;;25.50;99.90;;;;;;5051841;28;20071;-79
2022/08/03 10:50:18;;;;;;;0.20;0.20;;;25.60;99.90;;;;;;5050033;28;20467;-79
2022/08/03 10:52:57;;;;;;;0.20;0.20;;;25.70;99.90;;;;;;5064460;28;20067;-80
2022/08/03 10:58:39;;;;;;;0.20;0.20;;;25.90;99.90;;;;;;5068284;28;20088;-80
2022/08/03 11:01:10;;;;;;;0.20;0.20;;;26.00;99.90;;;;;;5068565;28;20401;-78
2022/08/03 11:04:01;;;;;;;0.20;0.20;;;26.00;99.90;;;;;;5062446;28;20052;-83
2022/08/03 11:06:27;;;;;;;0.20;0.20;;;26.00;99.90;;;;;;5055346;28;20147;-79
2022/08/03 11:09:11;;;;;;;0.20;0.20;;;26.10;99.90;;;;;;5071706;28;20116;-78
2022/08/03 11:11:38;;;;;;;0.20;0.20;;;26.10;99.90;;;;;;5060857;28;20227;-79
2022/08/03 11:14:06;;;;;;;0.20;0.20;;;26.20;99.90;;;;;;5052297;28;20586;-79
2022/08/03 11:16:36;;;;;;;0.20;0.20;;;26.30;99.90;;;;;;5051868;28;20134;-79
2022/08/03 11:19:04;;;;;;;0.20;0.20;;;26.30;99.90;;;;;;5052952;28;20568;-81
2022/08/03 11:21:49;;;;;;;0.20;0.20;;;26.40;99.90;;;;;;5050746;28;20132;-79
2022/08/03 11:24:38;;;;;;;0.20;0.20;;;26.50;99.90;;;;;;5060842;28;20378;-80
2022/08/03 11:27:23;;;;;;;0.20;0.20;;;26.60;99.90;;;;;;5065052;28;20579;-79
2022/08/03 11:30:08;;;;;;;0.20;0.20;;;26.60;99.90;;;;;;5060272;28;20047;-79
2022/08/03 11:32:37;;;;;;;0.20;0.20;;;26.60;99.90;;;;;;5052411;28;20519;-78
2022/08/03 11:35:13;;;;;;;0.20;0.20;;;26.70;99.90;;;;;;5065908;28;20052;-79
2022/08/03 11:37:56;;;;;;;0.20;0.20;;;26.70;99.90;;;;;;5071698;28;20040;-79
2022/08/03 11:40:42;;;;;;;0.20;0.20;;;26.80;99.90;;;;;;5053156;28;20048;-79
2022/08/03 11:43:29;;;;;;;0.20;0.20;;;26.90;99.90;;;;;;5055101;28;20044;-77
2022/08/03 11:46:07;;;;;;;0.20;0.20;;;27.00;99.90;;;;;;5071235;28;20049;-77
2022/08/03 11:48:37;;;;;;;0.20;0.20;;;27.10;99.90;;;;;;5070670;28;20045;-77
2022/08/03 11:51:04;;;;;;;0.20;0.20;;;27.10;99.90;;;;;;5072449;28;20063;-78
2022/08/03 11:53:30;;;;;;;0.20;0.20;;;27.20;99.90;;;;;;5069827;28;20036;-79
2022/08/03 11:55:59;;;;;;;0.20;0.20;;;27.30;99.90;;;;;;5069146;28;20059;-79
2022/08/03 11:58:25;;;;;;;0.20;0.20;;;27.30;99.90;;;;;;5056343;28;20049;-78
2022/08/03 12:00:51;;;;;;;0.20;0.20;;;27.30;99.90;;;;;;5050217;28;20048;-79
2022/08/03 12:03:18;;;;;;;0.20;0.20;;;27.40;99.90;;;;;;5050065;28;20049;-79
2022/08/03 12:05:52;;;;;;;0.20;0.20;;;27.40;99.90;;;;;;5074847;28;20055;-78
2022/08/03 12:08:27;;;;;;;0.20;0.20;;;27.50;99.90;;;;;;5077016;28;20050;-79
2022/08/03 12:10:54;;;;;;;0.10;0.10;;;27.60;99.90;;;;;;5069228;28;20106;-79
2022/08/03 12:13:21;;;;;;;0.20;0.20;;;27.60;99.90;;;;;;5068243;28;20047;-79
2022/08/03 12:15:56;;;;;;;0.20;0.20;;;27.60;99.90;;;;;;5070308;28;20080;-79
2022/08/03 12:18:22;;;;;;;0.20;0.20;;;27.60;99.90;;;;;;5055510;28;20079;-78
2022/08/03 12:20:53;;;;;;;0.20;0.20;;;27.70;99.90;;;;;;5059153;28;20056;-78
2022/08/03 12:23:19;;;;;;;0.20;0.20;;;27.80;99.90;;;;;;5067823;28;20048;-77
2022/08/03 12:25:46;;;;;;;0.20;0.20;;;27.80;99.90;;;;;;5068217;28;20055;-78
2022/08/03 12:28:22;;;;;;;0.20;0.20;;;27.90;99.90;;;;;;5069402;28;20546;-77
2022/08/03 12:30:51;;;;;;;0.17;0.17;;;28.00;99.90;;;;;;5062350;28;20053;-77
2022/08/03 12:33:24;;;;;;;0.20;0.20;;;28.00;99.90;;;;;;5066081;28;20047;-79
2022/08/03 12:36:02;;;;;;;0.20;0.20;;;28.10;99.90;;;;;;5058883;28;20047;-77
2022/08/03 12:38:28;;;;;;;0.10;0.10;;;28.20;99.90;;;;;;5050359;28;20425;-77
2022/08/03 12:40:59;;;;;;;0.20;0.20;;;28.30;99.90;;;;;;5066282;28;20045;-77
2022/08/03 12:43:25;;;;;;;0.20;0.20;;;28.40;99.90;;;;;;5053453;28;20044;-76
2022/08/03 12:45:51;;;;;;;0.10;0.10;;;28.50;99.90;;;;;;5068919;28;20503;-77
2022/08/03 12:48:16;;;;;;;0.20;0.20;;;28.60;99.90;;;;;;5051339;28;20029;-77
2022/08/03 12:50:42;;;;;;;0.20;0.20;;;28.70;99.90;;;;;;5070331;28;20090;-77
2022/08/03 12:53:09;;;;;;;0.15;0.15;;;28.70;99.90;;;;;;5079948;28;20055;-78
2022/08/03 12:55:36;;;;;;;0.13;0.13;;;28.80;99.90;;;;;;5069560;28;20082;-78
2022/08/03 12:58:03;;;;;;;0.20;0.20;;;28.70;99.90;;;;;;5061105;28;20056;-77
2022/08/03 13:00:29;;;;;;;0.20;0.20;;;28.70;99.90;;;;;;5070453;28;20095;-77
2022/08/03 13:03:06;;;;;;;0.20;0.20;;;28.80;99.90;;;;;;5054592;28;20077;-78